Wokal Field Glasgow International Airport
KGGW : now visible

Airfield :











YOU CAN JOIN US ON...

 
LOGIN :

Register | Disclaimer

   EN    FR    IT 

 









Legend :    VFR   Marginal VFR   IFR   Intensive IFR   Very Intensive IFR
Visi :
Ceiling :
>= 8 km
>= 3000ft
5 to 8 km
1000 to 3000 ft
1500m to 5 km
500 to 1000 ft
800 to 1500m
200 to 500 ft
< 800m
< 200 ft
Symbols :   Thunderstorms  Fog  Heavy snow  Heavy precipitations  Wind > 20 kt






- Airport Elevation : 2296 ft
- IATA code : GGW


KGGW - Wokal Field Glasgow International

CURRENT METAR :
  • 291253Z AUTO 30010KT 10SM CLR M07/M09 A3004 RMK AO2 SLP208 T10671089

EXPIRED METARs :
  • 291153Z AUTO 31009KT 10SM CLR M07/M09 A3002 RMK AO2 SLP201 T10671094 11011 21067 53014
  • 291053Z AUTO 31006KT 10SM CLR M06/M08 A3000 RMK AO2 SLP188 T10561083

TAF KGGW
Valid from the 29 at 12:00 until the 30 at 12:00 UTC


291120Z 2912/3012 VRB04KT P6SM SCT080
FM291800 31007KT P6SM SCT020
FM300100 VRB05KT P6SM SCT020
FM300900 VRB06KT 6SM -SN OVC010



MET'MAP, your aeronautical weather chart ! - Copyright ORBIFLY December 2007 - Disclaimer

ORBIFLY MET'MAP TEAM :

Programming & Development : Alexandra Zaïnal
Concept & original design : Baudouin d'Aumeries
Assistance for programming : Marc-Olivier Méhu
Technical & hardware support : Manuel Goepfert

Contact : metmap@orbifly.com




SOURCES & CREDITS :

   NOAA       Earth
Advisory